createdAt,value
2022-08-14T00:00:58.617Z,6.55
2022-08-14T00:03:29.551Z,4.50
2022-08-14T00:05:59.923Z,5.53
2022-08-14T00:08:42.029Z,4.50
2022-08-14T00:11:08.200Z,4.70
2022-08-14T00:13:33.149Z,5.25
2022-08-14T00:15:58.988Z,5.10
2022-08-14T00:18:30.516Z,5.72
2022-08-14T00:21:11.782Z,5.40
2022-08-14T00:23:35.505Z,5.30
2022-08-14T00:26:06.435Z,5.30
2022-08-14T00:28:32.773Z,7.15
2022-08-14T00:31:00.176Z,6.47
2022-08-14T00:33:51.157Z,5.82
2022-08-14T00:36:34.960Z,5.85
2022-08-14T00:38:54.149Z,6.50
2022-08-14T00:41:17.850Z,5.80
2022-08-14T00:43:43.217Z,7.22
2022-08-14T00:46:32.714Z,6.95
2022-08-14T00:48:58.072Z,5.65
2022-08-14T00:51:22.783Z,6.47
2022-08-14T00:53:47.602Z,6.00
2022-08-14T00:56:15.476Z,5.38
2022-08-14T00:58:45.174Z,5.30
2022-08-14T01:01:14.646Z,5.38
2022-08-14T01:03:42.309Z,5.75
2022-08-14T01:06:09.715Z,5.65
2022-08-14T01:08:52.114Z,5.47
2022-08-14T01:11:40.903Z,5.95
2022-08-14T01:14:26.041Z,5.65
2022-08-14T01:16:53.057Z,5.47
2022-08-14T01:19:34.746Z,5.45
2022-08-14T01:22:01.073Z,5.43
2022-08-14T01:24:30.934Z,5.18
2022-08-14T01:27:00.053Z,6.00
2022-08-14T01:29:43.159Z,6.22
2022-08-14T01:32:10.693Z,5.70
2022-08-14T01:35:18.504Z,5.68
2022-08-14T01:37:21.071Z,6.20
2022-08-14T01:39:45.357Z,5.90
2022-08-14T01:42:09.520Z,6.75
2022-08-14T01:44:55.448Z,5.57
2022-08-14T01:47:21.626Z,6.63
2022-08-14T01:49:59.994Z,7.30
2022-08-14T01:52:34.291Z,6.43
2022-08-14T01:55:14.261Z,6.10
2022-08-14T01:58:01.678Z,6.30
2022-08-14T02:00:22.526Z,5.90
2022-08-14T02:02:52.607Z,9.60
2022-08-14T02:05:18.328Z,6.40
2022-08-14T02:07:55.945Z,7.18
2022-08-14T02:10:29.880Z,6.60
2022-08-14T02:12:56.817Z,7.25
2022-08-14T02:15:21.788Z,6.60
2022-08-14T02:17:45.647Z,6.85
2022-08-14T02:20:14.274Z,5.85
2022-08-14T02:22:47.214Z,6.82
2022-08-14T02:25:13.217Z,6.60
2022-08-14T02:28:25.439Z,7.07
2022-08-14T02:30:27.063Z,11.27
2022-08-14T02:32:55.053Z,6.40
2022-08-14T02:35:26.579Z,6.63
2022-08-14T02:37:56.907Z,6.72
2022-08-14T02:40:32.522Z,6.47
2022-08-14T02:42:58.173Z,6.32
2022-08-14T02:45:22.445Z,6.32
2022-08-14T02:47:47.557Z,7.13
2022-08-14T02:50:11.642Z,7.00
2022-08-14T02:52:57.444Z,6.78
2022-08-14T02:55:23.079Z,6.63
2022-08-14T02:57:51.917Z,6.47
2022-08-14T03:00:22.477Z,6.97
2022-08-14T03:02:56.073Z,8.00
2022-08-14T03:05:23.688Z,7.10
2022-08-14T03:07:47.364Z,7.20
2022-08-14T03:10:25.810Z,7.95
2022-08-14T03:12:53.377Z,6.93
2022-08-14T03:15:19.177Z,7.25
2022-08-14T03:17:57.471Z,7.00
2022-08-14T03:20:22.549Z,8.40
2022-08-14T03:22:47.007Z,7.00
2022-08-14T03:25:14.833Z,7.53
2022-08-14T03:27:48.188Z,7.57
2022-08-14T03:30:23.590Z,9.32
2022-08-14T03:32:47.305Z,7.57
2022-08-14T03:35:11.934Z,10.52
2022-08-14T03:39:14.560Z,7.93
2022-08-14T03:40:40.849Z,8.45
2022-08-14T03:43:05.788Z,7.28
2022-08-14T03:45:34.941Z,7.53
2022-08-14T03:48:01.904Z,7.95
2022-08-14T03:50:27.967Z,7.15
2022-08-14T03:52:55.796Z,7.63
2022-08-14T03:55:21.229Z,8.93
2022-08-14T03:57:45.493Z,7.32
2022-08-14T04:00:40.377Z,7.97
2022-08-14T04:02:58.408Z,7.50
2022-08-14T04:05:22.231Z,9.55
2022-08-14T04:08:00.143Z,7.90
2022-08-14T04:10:33.081Z,7.80
2022-08-14T04:13:00.051Z,8.63
2022-08-14T04:15:28.029Z,7.95
2022-08-14T04:17:51.657Z,8.13
2022-08-14T04:20:25.537Z,8.25
2022-08-14T04:22:50.549Z,8.10
2022-08-14T04:25:19.764Z,7.32
2022-08-14T04:27:48.737Z,8.77
2022-08-14T04:30:29.674Z,8.30
2022-08-14T04:33:10.977Z,8.48
2022-08-14T04:35:55.354Z,8.52
2022-08-14T04:38:39.791Z,9.23
2022-08-14T04:41:21.159Z,8.07
2022-08-14T04:43:45.542Z,9.38
2022-08-14T04:46:54.799Z,8.40
2022-08-14T04:49:00.118Z,8.15
2022-08-14T04:51:25.937Z,7.82
2022-08-14T04:53:51.205Z,8.95
2022-08-14T04:56:31.366Z,9.07
2022-08-14T04:59:09.673Z,10.93
2022-08-14T05:01:40.008Z,9.38
2022-08-14T05:04:04.965Z,11.98
2022-08-14T05:06:35.181Z,8.60
2022-08-14T05:09:02.379Z,10.65
2022-08-14T05:11:25.921Z,9.10
2022-08-14T05:16:33.747Z,9.73
2022-08-14T05:19:26.646Z,9.95
2022-08-14T05:21:59.439Z,10.18
2022-08-14T05:24:25.223Z,10.13
2022-08-14T05:26:48.887Z,9.18
2022-08-14T05:29:12.561Z,9.98
2022-08-14T05:31:40.519Z,8.27
2022-08-14T05:34:04.323Z,9.73
2022-08-14T05:36:28.867Z,8.48
2022-08-14T05:38:55.497Z,9.13
2022-08-14T05:41:21.870Z,9.75
2022-08-14T05:43:47.828Z,11.30
2022-08-14T05:46:18.475Z,8.98
2022-08-14T05:48:45.331Z,11.98
2022-08-14T05:51:09.161Z,10.57
2022-08-14T05:53:34.006Z,9.18
2022-08-14T05:56:00.163Z,11.13
2022-08-14T05:58:33.814Z,8.90
2022-08-14T06:01:06.044Z,9.15
2022-08-14T06:03:29.661Z,10.50
2022-08-14T06:05:56.713Z,8.27
2022-08-14T06:08:36.600Z,11.40
2022-08-14T06:11:09.010Z,8.65
2022-08-14T06:13:45.701Z,8.77
2022-08-14T06:16:10.439Z,9.25
2022-08-14T06:18:35.692Z,11.25
2022-08-14T06:20:59.406Z,8.98
2022-08-14T06:23:23.253Z,8.52
2022-08-14T06:25:52.775Z,10.32
2022-08-14T06:28:28.112Z,9.50
2022-08-14T06:30:53.037Z,8.70
2022-08-14T06:33:18.414Z,9.18
2022-08-14T06:35:42.207Z,9.30
2022-08-14T06:38:06.865Z,9.55
2022-08-14T06:40:34.563Z,8.57
2022-08-14T06:43:03.387Z,10.43
2022-08-14T06:45:30.287Z,8.57
2022-08-14T06:47:54.654Z,8.40
2022-08-14T06:50:21.279Z,8.05
2022-08-14T06:52:52.081Z,8.57
2022-08-14T06:55:21.655Z,8.00
2022-08-14T06:57:51.891Z,7.53
2022-08-14T07:00:26.887Z,8.35
2022-08-14T07:03:12.239Z,9.02
2022-08-14T07:05:57.975Z,8.65
2022-08-14T07:08:26.428Z,8.43
2022-08-14T07:10:57.084Z,8.10
2022-08-14T07:13:24.484Z,8.82
2022-08-14T07:15:50.836Z,8.70
2022-08-14T07:18:23.996Z,7.60
2022-08-14T07:20:47.557Z,8.60
2022-08-14T07:23:20.551Z,8.07
2022-08-14T07:25:47.254Z,7.03
2022-08-14T07:28:20.480Z,8.50
2022-08-14T07:30:51.480Z,7.88
2022-08-14T07:33:15.695Z,8.98
2022-08-14T07:35:57.835Z,7.82
2022-08-14T07:38:24.941Z,8.27
2022-08-14T07:40:53.035Z,8.20
2022-08-14T07:43:23.202Z,8.20
2022-08-14T07:45:50.860Z,7.88
2022-08-14T07:48:17.573Z,7.88
2022-08-14T07:50:45.405Z,7.97
2022-08-14T07:53:09.231Z,7.20
2022-08-14T07:55:33.517Z,8.13
2022-08-14T07:57:58.810Z,8.20
2022-08-14T08:00:30.910Z,8.43
2022-08-14T08:02:57.046Z,7.72
2022-08-14T08:05:27.942Z,8.85
2022-08-14T08:07:55.056Z,8.55
2022-08-14T08:10:57.111Z,7.78
2022-08-14T08:13:24.095Z,7.90
2022-08-14T08:15:50.598Z,7.90
2022-08-14T08:18:20.454Z,7.53
2022-08-14T08:20:54.241Z,10.02
2022-08-14T08:23:30.986Z,8.70
2022-08-14T08:26:03.930Z,8.95
2022-08-14T08:28:29.207Z,8.00
2022-08-14T08:30:56.464Z,7.45
2022-08-14T08:33:21.663Z,7.55
2022-08-14T08:35:50.708Z,10.20
2022-08-14T08:39:14.946Z,8.10
2022-08-14T08:41:04.056Z,8.10
2022-08-14T08:43:30.295Z,7.97
2022-08-14T08:46:00.408Z,8.43
2022-08-14T08:48:31.831Z,8.15
2022-08-14T08:51:05.069Z,7.43
2022-08-14T08:53:33.498Z,7.93
2022-08-14T08:55:57.749Z,7.60
2022-08-14T08:58:25.004Z,8.32
2022-08-14T09:00:54.248Z,7.40
2022-08-14T09:03:24.606Z,7.70
2022-08-14T09:05:54.297Z,7.88
2022-08-14T09:08:30.531Z,7.05
2022-08-14T09:10:57.883Z,6.70
2022-08-14T09:13:25.566Z,8.63
2022-08-14T09:15:50.785Z,7.30
2022-08-14T09:18:18.534Z,7.65
2022-08-14T09:20:49.377Z,7.53
2022-08-14T09:23:16.839Z,7.88
2022-08-14T09:26:00.290Z,6.72
2022-08-14T09:28:26.946Z,7.30
2022-08-14T09:30:55.885Z,7.20
2022-08-14T09:33:56.403Z,6.70
2022-08-14T09:36:48.123Z,7.07
2022-08-14T09:39:26.146Z,7.28
2022-08-14T09:42:20.658Z,7.68
2022-08-14T09:45:10.665Z,7.10
2022-08-14T09:47:49.169Z,5.75
2022-08-14T09:50:27.870Z,6.50
2022-08-14T09:52:57.716Z,5.68
2022-08-14T09:55:24.011Z,6.70
2022-08-14T09:57:49.102Z,7.38
2022-08-14T10:00:30.343Z,6.40
2022-08-14T10:02:58.440Z,7.07
2022-08-14T10:05:34.491Z,5.90
2022-08-14T10:08:03.082Z,5.03
2022-08-14T10:10:41.755Z,5.90
2022-08-14T10:13:08.835Z,6.05
2022-08-14T10:15:40.047Z,5.85
2022-08-14T10:18:17.408Z,5.60
2022-08-14T10:20:48.252Z,5.25
2022-08-14T10:23:17.840Z,6.80
2022-08-14T10:25:44.699Z,5.35
2022-08-14T10:28:09.541Z,5.50
2022-08-14T10:30:54.685Z,5.60
2022-08-14T10:33:30.998Z,7.40
2022-08-14T10:35:54.714Z,4.80
2022-08-14T10:38:29.605Z,4.18
2022-08-14T10:40:59.607Z,6.30
2022-08-14T10:43:26.812Z,4.60
2022-08-14T10:46:21.836Z,8.48
2022-08-14T10:48:58.971Z,6.32
2022-08-14T10:51:27.217Z,9.00
2022-08-14T10:53:57.032Z,5.97
2022-08-14T10:56:35.004Z,5.30
2022-08-14T10:59:03.526Z,5.93
2022-08-14T11:01:38.488Z,5.00
2022-08-14T11:04:08.520Z,4.75
2022-08-14T11:06:33.442Z,5.53
2022-08-14T11:08:58.048Z,6.60
2022-08-14T11:11:23.021Z,8.30
2022-08-14T11:13:47.488Z,5.90
2022-08-14T11:16:11.862Z,4.63
2022-08-14T11:18:40.332Z,5.72
2022-08-14T11:21:06.979Z,6.70
2022-08-14T11:23:37.778Z,5.72
2022-08-14T11:26:03.718Z,5.38
2022-08-14T11:28:47.893Z,6.43
2022-08-14T11:31:15.020Z,5.10
2022-08-14T11:33:41.676Z,4.80
2022-08-14T11:36:17.143Z,6.20
2022-08-14T11:38:45.295Z,5.10
2022-08-14T11:41:10.260Z,5.40
2022-08-14T11:43:41.734Z,6.15
2022-08-14T11:46:06.571Z,5.15
2022-08-14T11:49:03.374Z,8.57
2022-08-14T11:51:30.363Z,4.85
2022-08-14T11:53:57.242Z,4.82
2022-08-14T11:56:25.710Z,4.88
2022-08-14T11:58:54.973Z,5.78
2022-08-14T12:01:20.284Z,5.10
2022-08-14T12:03:52.099Z,4.13
2022-08-14T12:06:28.562Z,4.63
2022-08-14T12:09:03.168Z,4.50
2022-08-14T12:11:26.730Z,4.82
2022-08-14T12:13:56.125Z,4.30
2022-08-14T12:16:22.809Z,4.38
2022-08-14T12:18:50.922Z,4.55
2022-08-14T12:21:19.884Z,5.32
2022-08-14T12:23:43.913Z,5.05
2022-08-14T12:26:31.944Z,4.70
2022-08-14T12:29:08.022Z,5.82
2022-08-14T12:31:41.925Z,4.95
2022-08-14T12:34:13.557Z,4.88
2022-08-14T12:36:43.934Z,5.70
2022-08-14T12:39:20.958Z,5.57
2022-08-14T12:41:57.261Z,4.78
2022-08-14T12:44:32.139Z,6.32
2022-08-14T12:47:06.416Z,4.13
2022-08-14T12:49:31.577Z,4.97
2022-08-14T12:51:59.511Z,4.70
2022-08-14T12:54:28.596Z,4.53
2022-08-14T12:56:52.776Z,4.38
2022-08-14T12:59:18.271Z,6.93
2022-08-14T13:02:01.875Z,4.78
2022-08-14T13:04:29.558Z,4.82
2022-08-14T13:06:54.664Z,4.60
2022-08-14T13:09:20.084Z,4.55
2022-08-14T13:11:46.989Z,4.57
2022-08-14T13:14:17.455Z,5.70
2022-08-14T13:16:42.759Z,4.53
2022-08-14T13:19:11.149Z,4.63
2022-08-14T13:22:05.668Z,4.72
2022-08-14T13:24:27.572Z,5.00
2022-08-14T13:26:56.071Z,5.00
2022-08-14T13:29:21.766Z,6.05
2022-08-14T13:31:47.197Z,5.15
2022-08-14T13:34:14.653Z,4.97
2022-08-14T13:36:54.693Z,4.22
2022-08-14T13:39:26.393Z,5.15
2022-08-14T13:41:55.593Z,4.45
2022-08-14T13:44:21.934Z,4.75
2022-08-14T13:46:48.182Z,6.47
2022-08-14T13:49:14.823Z,5.82
2022-08-14T13:51:43.328Z,4.47
2022-08-14T13:54:11.056Z,4.78
2022-08-14T13:56:40.408Z,4.57
2022-08-14T13:59:04.413Z,5.78
2022-08-14T14:01:29.678Z,4.10
2022-08-14T14:03:57.476Z,4.38
2022-08-14T14:06:25.229Z,4.10
2022-08-14T14:08:51.031Z,4.22
2022-08-14T14:11:16.594Z,4.35
2022-08-14T14:13:45.236Z,4.97
2022-08-14T14:16:11.791Z,4.07
2022-08-14T14:18:42.419Z,4.30
2022-08-14T14:21:06.791Z,4.22
2022-08-14T14:23:34.527Z,4.05
2022-08-14T14:25:58.893Z,4.28
2022-08-14T14:28:24.315Z,4.07
2022-08-14T14:30:53.034Z,6.07
2022-08-14T14:33:44.829Z,4.28
2022-08-14T14:36:02.858Z,4.22
2022-08-14T14:38:32.748Z,4.22
2022-08-14T14:41:00.788Z,4.18
2022-08-14T14:43:27.366Z,3.92
2022-08-14T14:45:56.309Z,4.68
2022-08-14T14:48:21.985Z,4.25
2022-08-14T14:50:53.086Z,3.80
2022-08-14T14:53:16.819Z,5.68
2022-08-14T14:55:59.569Z,3.92
2022-08-14T14:58:26.216Z,4.43
2022-08-14T15:00:57.269Z,4.13
2022-08-14T15:03:20.976Z,4.93
2022-08-14T15:05:45.082Z,4.43
2022-08-14T15:08:09.196Z,4.88
2022-08-14T15:10:40.798Z,4.13
2022-08-14T15:13:10.513Z,4.13
2022-08-14T15:15:36.884Z,4.55
2022-08-14T15:18:02.907Z,4.32
2022-08-14T15:20:31.461Z,4.03
2022-08-14T15:22:55.361Z,4.32
2022-08-14T15:25:19.031Z,3.83
2022-08-14T15:27:44.361Z,3.97
2022-08-14T15:30:11.145Z,4.38
2022-08-14T15:32:34.910Z,4.43
2022-08-14T15:35:02.554Z,15.48
2022-08-14T15:37:26.235Z,8.35
2022-08-14T15:39:59.036Z,9.65
2022-08-14T15:42:25.294Z,4.18
2022-08-14T15:44:58.137Z,4.40
2022-08-14T15:47:28.152Z,4.13
2022-08-14T15:49:54.391Z,5.13
2022-08-14T15:52:32.483Z,4.60
2022-08-14T15:54:59.806Z,4.70
2022-08-14T15:57:23.371Z,4.28
2022-08-14T16:00:04.813Z,3.92
2022-08-14T16:02:35.247Z,4.93
2022-08-14T16:04:58.875Z,5.20
2022-08-14T16:07:30.370Z,4.80
2022-08-14T16:10:27.268Z,4.35
2022-08-14T16:12:50.064Z,4.47
2022-08-14T16:15:13.767Z,4.13
2022-08-14T16:17:44.266Z,4.47
2022-08-14T16:20:10.518Z,4.38
2022-08-14T16:23:10.409Z,4.47
2022-08-14T16:25:21.296Z,4.97
2022-08-14T16:28:00.316Z,4.20
2022-08-14T16:30:27.528Z,4.97
2022-08-14T16:32:55.499Z,4.93
2022-08-14T16:35:19.978Z,4.68
2022-08-14T16:37:45.281Z,4.32
2022-08-14T16:40:12.706Z,4.20
2022-08-14T16:43:12.797Z,4.85
2022-08-14T16:45:27.720Z,4.88
2022-08-14T16:47:51.313Z,4.28
2022-08-14T16:50:40.787Z,4.93
2022-08-14T16:53:02.112Z,6.20
2022-08-14T16:55:31.295Z,5.20
2022-08-14T16:57:59.418Z,4.93
2022-08-14T17:00:32.989Z,4.90
2022-08-14T17:03:04.044Z,6.47
2022-08-14T17:05:30.971Z,4.63
2022-08-14T17:08:41.480Z,5.85
2022-08-14T17:11:09.946Z,4.88
2022-08-14T17:13:59.818Z,4.95
2022-08-14T17:16:23.967Z,5.38
2022-08-14T17:18:55.487Z,5.43
2022-08-14T17:21:31.808Z,5.88
2022-08-14T17:24:00.712Z,5.63
2022-08-14T17:26:38.105Z,5.15
2022-08-14T17:29:11.306Z,4.82
2022-08-14T17:31:58.556Z,4.65
2022-08-14T17:34:21.088Z,5.00
2022-08-14T17:36:50.630Z,5.15
2022-08-14T17:39:19.252Z,4.97
2022-08-14T17:42:01.997Z,5.05
2022-08-14T17:44:33.352Z,4.72
2022-08-14T17:47:01.799Z,4.75
2022-08-14T17:49:28.319Z,5.07
2022-08-14T17:52:03.700Z,5.50
2022-08-14T17:54:36.555Z,4.63
2022-08-14T17:57:13.082Z,5.70
2022-08-14T17:59:39.726Z,5.22
2022-08-14T18:02:07.318Z,5.57
2022-08-14T18:04:33.818Z,4.80
2022-08-14T18:07:16.786Z,5.05
2022-08-14T18:09:56.780Z,4.07
2022-08-14T18:12:31.818Z,5.40
2022-08-14T18:14:56.088Z,4.88
2022-08-14T18:17:23.581Z,5.45
2022-08-14T18:19:48.289Z,4.90
2022-08-14T18:22:24.054Z,6.28
2022-08-14T18:24:56.868Z,5.10
2022-08-14T18:27:25.265Z,5.13
2022-08-14T18:29:55.931Z,5.03
2022-08-14T18:32:47.450Z,5.45
2022-08-14T18:35:14.722Z,6.28
2022-08-14T18:37:39.867Z,5.22
2022-08-14T18:40:35.199Z,6.38
2022-08-14T18:43:03.516Z,5.50
2022-08-14T18:45:30.308Z,5.38
2022-08-14T18:48:15.937Z,6.30
2022-08-14T18:50:52.787Z,6.05
2022-08-14T18:53:17.250Z,6.00
2022-08-14T18:55:55.688Z,6.05
2022-08-14T18:58:31.048Z,8.55
2022-08-14T19:01:00.044Z,6.38
2022-08-14T19:03:57.836Z,7.55
2022-08-14T19:06:37.447Z,5.25
2022-08-14T19:09:02.734Z,5.90
2022-08-14T19:11:50.372Z,5.47
2022-08-14T19:14:18.561Z,6.30
2022-08-14T19:16:53.580Z,6.18
2022-08-14T19:19:17.918Z,5.30
2022-08-14T19:21:55.555Z,6.65
2022-08-14T19:24:27.876Z,5.68
2022-08-14T19:27:19.279Z,5.82
2022-08-14T19:29:47.785Z,6.15
2022-08-14T19:32:40.763Z,5.35
2022-08-14T19:35:16.938Z,7.55
2022-08-14T19:37:48.433Z,6.03
2022-08-14T19:40:29.712Z,6.47
2022-08-14T19:42:58.300Z,5.20
2022-08-14T19:45:25.575Z,5.25
2022-08-14T19:47:49.847Z,5.85
2022-08-14T19:50:31.108Z,5.55
2022-08-14T19:53:11.060Z,7.20
2022-08-14T19:55:37.261Z,7.53
2022-08-14T19:58:02.239Z,8.00
2022-08-14T20:00:30.047Z,8.35
2022-08-14T20:03:09.949Z,7.10
2022-08-14T20:05:39.942Z,5.60
2022-08-14T20:09:05.875Z,6.22
2022-08-14T20:11:06.714Z,6.63
2022-08-14T20:13:39.384Z,5.80
2022-08-14T20:16:20.950Z,7.22
2022-08-14T20:18:57.403Z,7.00
2022-08-14T20:21:34.415Z,6.28
2022-08-14T20:24:30.809Z,6.22
2022-08-14T20:27:34.022Z,6.18
2022-08-14T20:30:33.905Z,11.05
2022-08-14T20:33:01.429Z,6.20
2022-08-14T20:35:35.429Z,4.90
2022-08-14T20:38:29.133Z,6.20
2022-08-14T20:40:52.292Z,6.43
2022-08-14T20:43:35.458Z,7.90
2022-08-14T20:46:00.793Z,5.70
2022-08-14T20:48:52.260Z,7.05
2022-08-14T20:51:24.189Z,4.80
2022-08-14T20:53:58.083Z,5.13
2022-08-14T20:56:28.572Z,5.65
2022-08-14T20:58:54.169Z,6.10
2022-08-14T21:01:38.537Z,5.57
2022-08-14T21:04:05.058Z,4.68
2022-08-14T21:06:49.345Z,7.05
2022-08-14T21:10:05.660Z,4.90
2022-08-14T21:12:33.454Z,5.45
2022-08-14T21:14:54.639Z,5.30
2022-08-14T21:17:23.469Z,5.03
2022-08-14T21:19:50.562Z,5.57
2022-08-14T21:22:14.305Z,5.15
2022-08-14T21:24:39.192Z,8.30
2022-08-14T21:27:21.797Z,7.68
2022-08-14T21:29:54.394Z,7.35
2022-08-14T21:32:33.628Z,8.23
2022-08-14T21:34:59.111Z,6.47
2022-08-14T21:37:23.649Z,6.25
2022-08-14T21:39:47.419Z,5.72
2022-08-14T21:42:22.045Z,5.97
2022-08-14T21:44:53.434Z,7.40
2022-08-14T21:47:17.660Z,7.25
2022-08-14T21:49:48.223Z,6.13
2022-08-14T21:52:52.138Z,6.18
2022-08-14T21:55:09.709Z,6.47
2022-08-14T21:58:03.723Z,5.80
2022-08-14T22:00:35.217Z,6.88
2022-08-14T22:03:01.099Z,6.38
2022-08-14T22:05:25.590Z,6.03
2022-08-14T22:07:54.460Z,6.95
2022-08-14T22:10:23.005Z,5.97
2022-08-14T22:13:00.672Z,6.43
2022-08-14T22:15:25.572Z,5.45
2022-08-14T22:17:52.238Z,6.60
2022-08-14T22:20:20.508Z,6.38
2022-08-14T22:22:45.796Z,7.18
2022-08-14T22:25:16.124Z,6.40
2022-08-14T22:27:55.421Z,6.20
2022-08-14T22:30:20.111Z,6.32
2022-08-14T22:32:56.752Z,8.15
2022-08-14T22:35:23.638Z,5.78
2022-08-14T22:37:47.353Z,6.70
2022-08-14T22:40:55.304Z,8.30
2022-08-14T22:43:19.692Z,6.07
2022-08-14T22:45:55.191Z,6.15
2022-08-14T22:48:18.933Z,6.88
2022-08-14T22:50:53.208Z,6.90
2022-08-14T22:53:17.537Z,8.00
2022-08-14T22:55:44.732Z,6.60
2022-08-14T22:58:10.958Z,9.48
2022-08-14T23:00:43.897Z,7.28
2022-08-14T23:03:17.522Z,6.53
2022-08-14T23:05:52.521Z,6.25
2022-08-14T23:08:59.070Z,6.68
2022-08-14T23:11:04.102Z,7.57
2022-08-14T23:13:30.582Z,7.68
2022-08-14T23:15:55.019Z,7.97
2022-08-14T23:18:18.532Z,5.97
2022-08-14T23:20:46.089Z,6.65
2022-08-14T23:23:22.925Z,8.02
2022-08-14T23:26:00.118Z,6.25
2022-08-14T23:28:56.919Z,7.32
2022-08-14T23:31:34.500Z,5.40
2022-08-14T23:33:59.130Z,6.40
2022-08-14T23:36:31.840Z,7.35
2022-08-14T23:38:56.514Z,6.38
2022-08-14T23:41:20.117Z,6.40
2022-08-14T23:43:49.056Z,5.85
2022-08-14T23:46:15.028Z,6.40
2022-08-14T23:48:40.439Z,7.35
2022-08-14T23:51:11.952Z,5.95
2022-08-14T23:53:48.259Z,5.97
2022-08-14T23:56:30.408Z,5.78
2022-08-14T23:58:57.625Z,7.68
